Algowood — VCTD — position and weather

sailwx.info

Track history (hours):
 
Tides and Currents Weather Stations Pressure Air Temp Water Temp Dewpoint Dewpoint Depression Visibility Wind Speed Wind Dir Waves Ship Positions

Algowood

Last reported at 2017-May-14 17:07 UTC. Time now 2017-May-28 18:38 UTC.
Position N 46°59' W 091°33'.
Warning: this ship's position is 14 days out of date.

Length 223 m; draft 5.5 m.

Type: Cargo ship. MMSI: 316001802.

Date/timePositionNaut miles runAvg speedWind from/ knotsBaromVisibWave heightAir tempDewpointWater temp
2017-May-14 17:07N 46°59' W 091°33'111.0
2017-May-14 17:00N 46°58' W 091°35'611.0
2017-May-14 16:30N 46°55' W 091°42'511.0
2017-May-14 16:00N 46°53' W 091°49'511.0
2017-May-14 15:30N 46°50' W 091°56'510.4
2017-May-14 15:00N 46°48' W 092°03'3 5.6
2017-May-14 14:30N 46°46' W 092°06'2 1.7
2017-May-14 13:29N 46°44' W 092°07'0 0.0
2017-May-14 13:00N 46°44' W 092°07'0 0.0
2017-May-14 12:30N 46°44' W 092°07'0 0.0
2017-May-14 12:00N 46°44' W 092°07'0 0.0
2017-May-14 11:30N 46°44' W 092°07'0 0.0
2017-May-14 11:00N 46°44' W 092°07'0 0.0
2017-May-14 10:30N 46°44' W 092°07'0 0.0
2017-May-14 10:00N 46°44' W 092°07'0 0.0
2017-May-14 09:30N 46°44' W 092°07'0 0.0
2017-May-14 08:59N 46°44' W 092°07'0 0.0
2017-May-14 08:29N 46°44' W 092°07'0 0.0
2017-May-14 08:00N 46°44' W 092°07'0 0.0
2017-May-14 07:30N 46°44' W 092°07'0 0.0
2017-May-14 07:00N 46°44' W 092°07'0 0.0
2017-May-14 06:30N 46°44' W 092°07'0 0.5
2017-May-14 06:00N 46°45' W 092°07'0 0.1
2017-May-14 05:30N 46°45' W 092°07'1 2.5
2017-May-14 05:00N 46°45' W 092°06'2 3.0
2017-May-14 04:30N 46°47' W 092°06'3 6.0
2017-May-14 04:00N 46°48' W 092°02'4 8.7
2017-May-14 03:30N 46°49' W 091°56'611.1
2017-May-14 03:00N 46°52' W 091°48'611.1
2017-May-14 02:30N 46°54' W 091°41'611.2
2017-May-14 02:00N 46°56' W 091°33'611.2
2017-May-14 01:30N 46°58' W 091°26'323 8.7
2017-May-12 12:34N 45°51' W 083°48'  
Track history (hours):
 
Tides and Currents Weather Stations Pressure Air Temp Water Temp Dewpoint Dewpoint Depression Visibility Wind Speed Wind Dir Waves Ship Positions

Algowood

Last reported at 2017-May-14 17:07 UTC. Time now 2017-May-28 18:38 UTC.
Position N 46°59' W 091°33'.
Warning: this ship's position is 14 days out of date.

Length 223 m; draft 5.5 m.

Type: Cargo ship. MMSI: 316001802.

Date/timePositionNaut miles runAvg speedWind from/ knotsBaromVisibWave heightAir tempDewpointWater temp
2017-May-14 17:07N 46°59' W 091°33'111.0
2017-May-14 17:00N 46°58' W 091°35'611.0
2017-May-14 16:30N 46°55' W 091°42'511.0
2017-May-14 16:00N 46°53' W 091°49'511.0
2017-May-14 15:30N 46°50' W 091°56'510.4
2017-May-14 15:00N 46°48' W 092°03'3 5.6
2017-May-14 14:30N 46°46' W 092°06'2 1.7
2017-May-14 13:29N 46°44' W 092°07'0 0.0
2017-May-14 13:00N 46°44' W 092°07'0 0.0
2017-May-14 12:30N 46°44' W 092°07'0 0.0
2017-May-14 12:00N 46°44' W 092°07'0 0.0
2017-May-14 11:30N 46°44' W 092°07'0 0.0
2017-May-14 11:00N 46°44' W 092°07'0 0.0
2017-May-14 10:30N 46°44' W 092°07'0 0.0
2017-May-14 10:00N 46°44' W 092°07'0 0.0
2017-May-14 09:30N 46°44' W 092°07'0 0.0
2017-May-14 08:59N 46°44' W 092°07'0 0.0
2017-May-14 08:29N 46°44' W 092°07'0 0.0
2017-May-14 08:00N 46°44' W 092°07'0 0.0
2017-May-14 07:30N 46°44' W 092°07'0 0.0
2017-May-14 07:00N 46°44' W 092°07'0 0.0
2017-May-14 06:30N 46°44' W 092°07'0 0.5
2017-May-14 06:00N 46°45' W 092°07'0 0.1
2017-May-14 05:30N 46°45' W 092°07'1 2.5
2017-May-14 05:00N 46°45' W 092°06'2 3.0
2017-May-14 04:30N 46°47' W 092°06'3 6.0
2017-May-14 04:00N 46°48' W 092°02'4 8.7
2017-May-14 03:30N 46°49' W 091°56'611.1
2017-May-14 03:00N 46°52' W 091°48'611.1
2017-May-14 02:30N 46°54' W 091°41'611.2
2017-May-14 02:00N 46°56' W 091°33'611.2
2017-May-14 01:30N 46°58' W 091°26'323 8.7
2017-May-12 12:34N 45°51' W 083°48'  

Dump ship's entire track history